Tiempo atmosférico en la estación meteorológica de Olmedo, Depósito de Agua, Valladolid (786 m.)



Fecha
DESCASC
Temp. máxima en grados centígrados (hora)
DESCASC
Temp. mínima en grados centígrados (hora)
DESCASC
Temp. media en grados centígrados
DESCASC
Racha de viento máxima en m/sg (hora)
DESCASC
Velocidad máxima media en intervalos de 10 minutos(hora)
DESCASC
Precipitaciones diarias en mm
DESCASC
Precipitaciones de 00:00 a 06:00 en mm
DESCASC
Precipitaciones de 06:00 a 12:00 en mm
DESCASC
Precipitaciones de 12:00 a 18:00 en mm
DESCASC
Precipitaciones de 18:00 a 24:00 en mm
DESCASC
31-03-2020 11.1 (18:50) -0.4 (08:10) 5.4 10 (00:10) 6.39 (00:20) 6.6 0 0.4 2.8 3.4
29-03-2020 17.2 (17:20) 0.6 (00:00) 8.9 11.67 (21:50) 6.94 (21:50) 0 0 0 0 0
28-03-2020 16.4 (16:20) -2.5 (-00:0) 6.9 5.56 (15:20) 3.33 (06:30) 0 0 0 0 0
27-03-2020 13 (15:00) -0.8 (-00:0) 6.1 9.17 (00:40) 6.11 (00:40) 0 0 0 0 0
26-03-2020 13 (17:50) 1.3 (00:00) 7.1 8.61 (22:30) 5.83 (19:10) 0 0 0 0 0
25-03-2020 17.3 (17:50) 2 (00:00) 9.6 7.78 (16:10) 3.89 (16:10) 0 0 0 0 0
24-03-2020 16.3 (15:30) 3.4 (00:00) 9.8 10 (18:00) 6.39 (18:10) 0 0 0 0 0
23-03-2020 15.1 (17:30) 3.1 (00:00) 9.1 10.56 (15:40) 6.11 (17:40) 0 0 0 0 0
22-03-2020 13.7 (16:00) 5.9 (03:30) 9.8 11.11 (17:00) 6.94 (17:00) 1.8 0.2 0.2 1.4 0
21-03-2020 13.4 (12:30) 4.2 (00:00) 8.8 8.33 (13:00) 6.11 (13:00) 0.8 0 0 0.2 0.6
20-03-2020 16 (14:20) 7.6 (00:00) 11.8 11.94 (15:50) 9.17 (16:20) 0 0 0 0 0
19-03-2020 14.5 (15:30) 7.2 (00:00) 10.8 6.94 (22:30) 5.28 (23:20) 0 0 0 0 0
18-03-2020 17.9 (16:30) 5.5 (00:00) 11.7 6.67 (06:30) 4.72 (00:10) 0 0 0 0 0
17-03-2020 16 (16:30) 4.8 (00:00) 10.4 11.67 (14:30) 8.33 (16:10) 4 4 0 0 0
16-03-2020 6 (20:30) 1.1 (00:00) 3.6 19.17 (15:50) 11.67 (15:40) 16.2 0.8 8 5.4 2
15-03-2020 20 (14:30) -0.7 (-00:0) 9.7 16.11 (15:50) 11.94 (16:00) 0 0 0 0 0
14-03-2020 18.7 (17:10) -0.9 (-00:0) 8.9 5.56 (14:30) 2.78 (23:40) 0 0 0 0 0
13-03-2020 17.9 (15:20) 6.2 (07:30) 12 9.44 (18:30) 5.83 (18:10) 0 0 0 0 0
12-03-2020 23 (15:50) 7.3 (00:00) 15.2 6.39 (15:00) 5 (01:00) 0 0 0 0 0
11-03-2020 24.1 (16:50) 6 (00:00) 15.1 6.39 (00:50) 5.56 (00:50) 0 0 0 0 0
10-03-2020 22 (17:00) 3.2 (00:00) 12.6 7.22 (17:40) 5.28 (02:00) 0 0 0 0 0
09-03-2020 14.1 (16:20) 1 (00:00) 7.6 7.5 (16:30) 4.72 (16:30) 0 0 0 0 0
08-03-2020 13.1 (16:50) -0.1 (00:00) 6.5 9.17 (18:00) 6.39 (04:10) 0 0 0 0 0
07-03-2020 13.4 (17:30) -0.9 (-00:0) 6.2 6.11 (23:40) 5.28 (23:59) 0 0 0 0 0
06-03-2020 10.5 (16:40) 2.3 (00:00) 6.4 18.33 (12:50) 11.67 (12:50) 0 0 0 0 0
05-03-2020 12.5 (16:30) 4 (00:00) 8.3 18.61 (09:50) 13.61 (09:00) 0.4 0 0.4 0 0
04-03-2020 14.6 (14:10) 9.5 (08:10) 12.1 11.67 (11:20) 6.94 (12:20) 0 0 0 0 0

Gráficas

Temp. máximas Temp. mínimas Temp. medias Precipitaciones Rachas de viento máximas Velocidades máximas media en intervalos de 10 minutos

Datos horarios

Fecha y hora oficial Temperatura (ºC) Velocidad del viento (km/h) Dirección del viento Racha (km/h) Dirección de racha Precipitación (mm) Presión (hPa) Tendencia (hPa) Humedad (%)
2020-04-02 23:00:00 7.3 10 Nordeste 15 Nordeste 0 -- -- 78
2020-04-02 22:00:00 7.5 6 Nordeste 14 Nordeste 0 -- -- 77
2020-04-02 21:00:00 8.5 8 Nordeste 30 Nordeste 0 -- -- 76
2020-04-02 20:00:00 9.9 15 Nordeste 27 Nordeste 0 -- -- 72
2020-04-02 19:00:00 10.1 16 Nordeste 27 Nordeste 0 -- -- 72
2020-04-02 18:00:00 9.5 10 Nordeste 32 Nordeste 1.2 -- -- 81
2020-04-02 17:00:00 11.9 11 Nordeste 19 Nordeste 0 -- -- 71
2020-04-02 16:00:00 9.5 14 Este 27 Este 0 -- -- 81
2020-04-02 15:00:00 10.6 16 Nordeste 28 Nordeste 0.2 -- -- 76
2020-04-02 14:00:00 10.4 10 Nordeste 19 Nordeste 0 -- -- 78
2020-04-02 13:00:00 8.4 12 Norte 19 Norte 0 -- -- 88
2020-04-02 12:00:00 7.6 6 Este 13 Este 0 -- -- 90
2020-04-02 11:00:00 6 6 Este 12 Este 0 -- -- 94
2020-04-02 10:00:00 4.7 3 Nordeste 9 Este 0 -- -- 97
2020-04-02 09:00:00 3.8 5 Este 11 Este 0 -- -- 97
2020-04-02 08:00:00 3.7 7 Este 12 Sudeste 0 -- -- 96
2020-04-02 07:00:00 3.8 6 Sudeste 9 Sudeste 0 -- -- 97
2020-04-02 06:00:00 3.7 0 Calma 4 Sudoeste 0 -- -- 97
2020-04-02 05:00:00 3.7 3 Sudoeste 6 Sur 0 -- -- 97
2020-04-02 04:00:00 3.3 3 Sur 6 Norte 0 -- -- 97
2020-04-02 03:00:00 3.5 4 Norte 10 Noroeste 0 -- -- 96
2020-04-02 02:00:00 4.3 5 Norte 9 Norte 0 -- -- 95
2020-04-02 01:00:00 5 7 Norte 13 Norte 0 -- -- 94
2020-04-02 00:00:00 5.8 10 Norte 15 Norte 0 -- -- 94
2020-04-01 23:00:00 5.8 4 Oeste 10 Oeste 0 -- -- 92
2020-04-01 22:00:00 7.3 4 Norte 9 Norte 0 -- -- 86
2020-04-01 21:00:00 7.9 2 Noroeste 32 Sudoeste 2 -- -- 80
2020-04-01 20:00:00 10 7 Noroeste 19 Norte 0 -- -- 77
2020-04-01 19:00:00 11.7 12 Norte 22 Norte 0 -- -- 71
2020-04-01 18:00:00 11.4 9 Nordeste 17 Nordeste 0 -- -- 68
2020-04-01 17:00:00 11.7 4 Sudeste 9 Sudeste 0 -- -- 63
2020-04-01 16:00:00 12.7 4 Sudeste 13 Sudeste 0 -- -- 63
2020-04-01 15:00:00 10.1 5 Sur 18 Sur 0.2 -- -- 71
2020-04-01 14:00:00 8.6 19 Sur 26 Sur 0.6 -- -- 83
2020-04-01 13:00:00 10.7 4 Oeste 17 Sudoeste 0 -- -- 73
2020-04-01 12:00:00 10.3 3 Sudoeste 12 Este 0 -- -- 79
2020-04-01 11:00:00 8.2 5 Este 10 Este 0 -- -- 86
2020-04-01 10:00:00 4.2 0 Calma 12 Sudoeste 0 -- -- 95
2020-04-01 09:00:00 3.8 2 Sudoeste 17 Este 0 -- -- 96
2020-04-01 08:00:00 3.1 4 Sudoeste 8 Sudoeste 0 -- -- 91
2020-04-01 07:00:00 4.3 4 Sudoeste 14 Oeste 0 -- -- 92
2020-04-01 06:00:00 4.4 0 Calma 8 Oeste 0 -- -- 93
2020-04-01 05:00:00 5.8 7 Sudeste 13 Sur 0 -- -- 91
2020-04-01 04:00:00 5.7 11 Sudeste 17 Sudeste 0 -- -- 93
2020-04-01 03:00:00 5.7 11 Sudeste 19 Sudeste 0 -- -- 95
2020-04-01 02:00:00 6 16 Sudeste 21 Sudeste 0 -- -- 94
2020-04-01 01:00:00 6.9 13 Este 19 Este 0.2 -- -- 93
2020-04-01 00:00:00 7 11 Sudeste 34 Sudeste 2.4 -- -- 90
2020-03-31 23:00:00 7.4 16 Sudeste 24 Sudeste 1 -- -- 89
2020-03-31 22:00:00 8.3 18 Sur 28 Sur 0 -- -- 84
2020-03-31 21:00:00 9.4 11 Sudeste 22 Sur 0 -- -- 82
2020-03-31 20:00:00 9.9 12 Este 31 Este 0 -- -- 80
2020-03-31 19:00:00 11 20 Este 26 Este 0 -- -- 76
2020-03-31 18:00:00 10.2 15 Este 23 Este 0 -- -- 72
2020-03-31 17:00:00 8.6 9 Este 18 Este 1.8 -- -- 83
2020-03-31 16:00:00 8.6 11 Este 28 Nordeste 0.8 -- -- 77
2020-03-31 15:00:00 10.1 15 Nordeste 28 Nordeste 0 -- -- 63
2020-03-31 14:00:00 9.2 15 Nordeste 27 Nordeste 0.2 -- -- 68
2020-03-31 13:00:00 5.6 15 Este 27 Este 0 -- -- 81
2020-03-31 12:00:00 4 17 Este 26 Este 0 -- -- 79
2020-03-31 11:00:00 2.5 15 Este 24 Este 0.4 -- -- 82
2020-03-31 10:00:00 0.7 18 Este 26 Este 0 -- -- 85
2020-03-31 09:00:00 -0.1 15 Este 29 Este 0 -- -- 86
2020-03-31 08:00:00 -0.3 16 Este 30 Nordeste 0 -- -- 87
2020-03-31 07:00:00 0.1 19 Nordeste 29 Nordeste 0 -- -- 88
2020-03-31 06:00:00 -0.1 12 Nordeste 28 Nordeste 0 -- -- 92
2020-03-31 05:00:00 -0.2 18 Nordeste 32 Este 0 -- -- 93
2020-03-31 04:00:00 0 19 Nordeste 33 Nordeste 0 -- -- 92
2020-03-31 03:00:00 0.4 19 Nordeste 31 Nordeste 0 -- -- 88
2020-03-31 02:00:00 1.5 21 Este 35 Este 0 -- -- 73
2020-03-31 01:00:00 2 20 Nordeste 36 Nordeste 0 -- -- 58
2020-03-31 00:00:00 2.2 15 Nordeste 32 Nordeste 0 -- -- 58
2020-03-30 23:00:00 2.7 20 Nordeste 38 Nordeste 0 -- -- 56
2020-03-30 22:00:00 3.3 23 Nordeste 33 Nordeste 0 -- -- 50
2020-03-30 21:00:00 3.9 21 Nordeste 32 Nordeste 0 -- -- 46
2020-03-30 20:00:00 4.4 23 Nordeste 37 Nordeste 0 -- -- 45
2020-03-30 19:00:00 4.9 22 Nordeste 35 Nordeste 0 -- -- 46
2020-03-30 18:00:00 5.5 23 Nordeste 39 Nordeste 0 -- -- 43
2020-03-30 17:00:00 5.7 21 Nordeste 41 Nordeste 0 -- -- 44
2020-03-30 16:00:00 5.7 22 Nordeste 41 Nordeste 0 -- -- 43
2020-03-30 15:00:00 4.6 28 Nordeste 43 Nordeste 0 -- -- 47
2020-03-30 14:00:00 3.7 19 Nordeste 40 Nordeste 0 -- -- 55
2020-03-30 13:00:00 3.1 28 Nordeste 41 Nordeste 0 -- -- 54
2020-03-30 12:00:00 2.8 21 Nordeste 36 Este 0 -- -- 58
2020-03-30 11:00:00 2.7 27 Nordeste 41 Este 0 -- -- 60
2020-03-30 10:00:00 1.7 18 Nordeste 40 Este 0 -- -- 70
2020-03-30 09:00:00 2.3 20 Nordeste 36 Nordeste 0 -- -- 68
2020-03-30 08:00:00 2.4 21 Nordeste 35 Nordeste 0 -- -- 74
2020-03-30 07:00:00 3.1 23 Nordeste 38 Nordeste 0 -- -- 71
2020-03-30 06:00:00 3.3 23 Nordeste 36 Nordeste 0 -- -- 74
2020-03-30 05:00:00 4.1 23 Nordeste 39 Nordeste 0 -- -- 71
2020-03-30 04:00:00 5.1 19 Nordeste 36 Nordeste 0 -- -- 74
2020-03-30 03:00:00 5.7 20 Nordeste 35 Nordeste 0 -- -- 74
2020-03-30 02:00:00 5.6 17 Nordeste 29 Este 0 -- -- 72
2020-03-30 01:00:00 6.2 17 Este 36 Este 0 -- -- 73
2020-03-30 00:00:00 7.2 19 Nordeste 35 Nordeste 0 -- -- 67
2020-03-29 23:00:00 8.3 16 Nordeste 38 Nordeste 0 -- -- 62
2020-03-29 22:00:00 9.9 19 Nordeste 42 Nordeste 0 -- -- 54
2020-03-29 21:00:00 12.4 24 Nordeste 35 Nordeste 0 -- -- 43
2020-03-29 20:00:00 14.1 9 Nordeste 16 Norte 0 -- -- 42
2020-03-29 19:00:00 15.5 10 Norte 18 Norte 0 -- -- 36
2020-03-29 18:00:00 15.7 10 Norte 21 Nordeste 0 -- -- 37
2020-03-29 17:00:00 16.8 9 Norte 21 Norte 0 -- -- 40
2020-03-29 16:00:00 16 11 Nordeste 20 Nordeste 0 -- -- 41
2020-03-29 15:00:00 16 7 Norte 15 Norte 0 -- -- 43
2020-03-29 14:00:00 14.3 7 Noroeste 12 Noroeste 0 -- -- 48
2020-03-29 13:00:00 12.7 4 Noroeste 9 Noroeste 0 -- -- 50
2020-03-29 12:00:00 10.4 3 Oeste 8 Oeste 0 -- -- 58
2020-03-29 11:00:00 7.3 2 Sudoeste 6 Sudoeste 0 -- -- 68
2020-03-29 10:00:00 3.9 3 Sudoeste 5 Sudoeste 0 -- -- 78
2020-03-29 09:00:00 1.4 5 Sur 11 Sudoeste 0 -- -- 85
2020-03-29 08:00:00 0.6 10 Sudoeste 12 Sudoeste 0 -- -- 85
2020-03-29 07:00:00 1.1 9 Sudoeste 13 Sur 0 -- -- 82
2020-03-29 06:00:00 1.5 12 Sur 14 Sur 0 -- -- 81
2020-03-29 05:00:00 2 8 Sudoeste 12 Sur 0 -- -- 79
2020-03-29 03:00:00 4.4 6 Sudoeste 10 Sur 0 -- -- 68
2020-03-29 01:00:00 4.7 8 Sudoeste 12 Sudoeste 0 -- -- 67
2020-03-29 00:00:00 6.3 5 Sur 9 Sur 0 -- -- 61
2020-03-28 23:00:00 8.8 2 Oeste 14 Sur 0 -- -- 50
2020-03-28 22:00:00 9.2 4 Oeste 13 Norte 0 -- -- 52
2020-03-28 21:00:00 10.4 6 Noroeste 10 Noroeste 0 -- -- 49
2020-03-28 20:00:00 12.5 4 Noroeste 8 Noroeste 0 -- -- 40
2020-03-28 19:00:00 14.4 5 Noroeste 9 Norte 0 -- -- 34
2020-03-28 18:00:00 16.1 5 Norte 13 Noroeste 0 -- -- 32
2020-03-28 17:00:00 16.1 5 Norte 18 Nordeste 0 -- -- 32
2020-03-28 16:00:00 15.8 7 Noroeste 20 Oeste 0 -- -- 34
2020-03-28 15:00:00 15.4 8 Noroeste 15 Noroeste 0 -- -- 34
2020-03-28 14:00:00 14.1 7 Oeste 16 Sudoeste 0 -- -- 36
2020-03-28 13:00:00 13 6 Sudoeste 14 Noroeste 0 -- -- 40
2020-03-28 12:00:00 11.7 5 Norte 10 Noroeste 0 -- -- 45
2020-03-28 11:00:00 9.4 4 Norte 8 Norte 0 -- -- 53
2020-03-28 10:00:00 6.5 5 Este 10 Este 0 -- -- 59
2020-03-28 09:00:00 1.7 7 Este 11 Este 0 -- -- 78
2020-03-28 08:00:00 -1.7 7 Este 10 Este 0 -- -- 83
2020-03-28 07:00:00 -2.5 9 Sudeste 17 Este 0 -- -- 85
2020-03-28 06:00:00 -1.8 8 Este 10 Este 0 -- -- 82
2020-03-28 05:00:00 -0.5 4 Este 8 Este 0 -- -- 77
2020-03-28 04:00:00 1.8 6 Sudeste 6 Sudeste 0 -- -- 73
2020-03-28 03:00:00 2.4 2 Sur 8 Sur 0 -- -- 71
2020-03-28 02:00:00 2.8 4 Sudoeste 5 Sudoeste 0 -- -- 67
2020-03-28 01:00:00 3 -- -- -- -- 0 -- -- 68
2020-03-28 00:00:00 3.3 5 Este 9 Sudeste 0 -- -- 65
2020-03-27 23:00:00 3.8 4 Sur 17 Sudoeste 0 -- -- 64
2020-03-27 22:00:00 4.1 10 Sudoeste 12 Sudoeste 0 -- -- 61
2020-03-27 21:00:00 5.8 9 Sudoeste 14 Sur 0 -- -- 55
2020-03-27 20:00:00 8.2 13 Sur 15 Sur 0 -- -- 48
2020-03-27 19:00:00 11.4 15 Sudeste 32 Sudeste 0 -- -- 37
2020-03-27 18:00:00 12.3 15 Sudeste 31 Sudeste 0 -- -- 30
2020-03-27 17:00:00 12.5 18 Sudeste 32 Sudeste 0 -- -- 29
2020-03-27 16:00:00 12.7 15 Este 31 Sudeste 0 -- -- 29
2020-03-27 15:00:00 13 17 Sur 32 Sudeste 0 -- -- 29
2020-03-27 14:00:00 11.9 13 Este 26 Sudeste 0 -- -- 33
2020-03-27 13:00:00 10.5 8 Sudeste 23 Este 0 -- -- 39
2020-03-27 12:00:00 9.2 10 Este 24 Sudeste 0 -- -- 44
2020-03-27 11:00:00 7.5 12 Este 22 Nordeste 0 -- -- 50
2020-03-27 10:00:00 5.3 10 Nordeste 19 Este 0 -- -- 53
2020-03-27 09:00:00 2.4 12 Este 21 Este 0 -- -- 62
2020-03-27 08:00:00 -0.3 8 Nordeste 15 Nordeste 0 -- -- 72
2020-03-27 07:00:00 -0.7 5 Nordeste 14 Nordeste 0 -- -- 73
2020-03-27 06:00:00 0 9 Nordeste 19 Nordeste 0 -- -- 72
2020-03-27 05:00:00 0.9 10 Nordeste 22 Nordeste 0 -- -- 70
2020-03-27 04:00:00 2.1 9 Nordeste 26 Nordeste 0 -- -- 62
2020-03-27 03:00:00 3.2 18 Nordeste 31 Nordeste 0 -- -- 60
2020-03-27 02:00:00 4.1 15 Nordeste 31 Nordeste 0 -- -- 58
2020-03-27 01:00:00 4.3 18 Nordeste 33 Nordeste 0 -- -- 57
2020-03-27 00:00:00 4.4 18 Nordeste 27 Nordeste 0 -- -- 65
2020-03-26 23:00:00 5 17 Nordeste 31 Nordeste 0 -- -- 65
2020-03-26 22:00:00 5.6 17 Este 29 Nordeste 0 -- -- 62
2020-03-26 21:00:00 6.6 19 Nordeste 30 Nordeste 0 -- -- 60
2020-03-26 20:00:00 8.3 13 Este 26 Este 0 -- -- 55
2020-03-26 19:00:00 10.3 19 Este 29 Este 0 -- -- 50
2020-03-26 18:00:00 12.7 10 Nordeste 17 Norte 0 -- -- 37
2020-03-26 17:00:00 12.8 4 Noroeste 19 Nordeste 0 -- -- 38
2020-03-26 16:00:00 12.7 9 Nordeste 21 Nordeste 0 -- -- 35
2020-03-26 15:00:00 12.2 8 Norte 26 Nordeste 0 -- -- 34
2020-03-26 14:00:00 11.4 13 Norte 25 Noroeste 0 -- -- 38
2020-03-26 13:00:00 11.1 10 Nordeste 19 Norte 0 -- -- 42
2020-03-26 12:00:00 10 9 Nordeste 15 Este 0 -- -- 47
2020-03-26 11:00:00 8.9 6 Nordeste 14 Norte 0 -- -- 51
2020-03-26 10:00:00 6.3 3 Oeste 6 Oeste 0 -- -- 59
2020-03-26 09:00:00 4.5 0 Calma 4 Sudoeste 0 -- -- 63
2020-03-26 08:00:00 2.3 0 Calma 5 Nordeste 0 -- -- 65
2020-03-26 07:00:00 1.5 4 Nordeste 14 Nordeste 0 -- -- 66
2020-03-26 06:00:00 2.3 8 Nordeste 10 Norte 0 -- -- 61
2020-03-26 05:00:00 2.8 6 Este 13 Nordeste 0 -- -- 65
2020-03-26 04:00:00 3.6 9 Nordeste 13 Nordeste 0 -- -- 64
2020-03-26 03:00:00 4.3 12 Este 20 Este 0 -- -- 60
2020-03-26 02:00:00 5.4 8 Este 11 Nordeste 0 -- -- 49
2020-03-26 01:00:00 6.8 6 Este 12 Nordeste 0 -- -- 44
2020-03-26 00:00:00 8.3 10 Este 17 Este 0 -- -- 42
2020-03-25 23:00:00 9.1 8 Este 15 Este 0 -- -- 47
2020-03-25 22:00:00 9.4 7 Sudeste 15 Sudeste 0 -- -- 63
2020-03-25 21:00:00 12.1 2 Este 5 Nordeste 0 -- -- 40
2020-03-25 20:00:00 13.9 2 Nordeste 8 Norte 0 -- -- 37
2020-03-25 19:00:00 15.9 6 Nordeste 11 Este 0 -- -- 31
2020-03-25 18:00:00 17.2 7 Norte 22 Noroeste 0 -- -- 28
2020-03-25 17:00:00 17 9 Noroeste 28 Noroeste 0 -- -- 35
2020-03-25 16:00:00 16.7 8 Noroeste 27 Norte 0 -- -- 40
2020-03-25 15:00:00 16.3 10 Noroeste 22 Noroeste 0 -- -- 41
2020-03-25 14:00:00 15.4 11 Noroeste 24 Noroeste 0 -- -- 52
2020-03-25 13:00:00 14.3 8 Noroeste 20 Oeste 0 -- -- 55
2020-03-25 12:00:00 12.2 6 Oeste 15 Oeste 0 -- -- 64
2020-03-25 11:00:00 10 8 Oeste 15 Oeste 0 -- -- 74
2020-03-25 10:00:00 7.1 10 Sudoeste 13 Sudoeste 0 -- -- 82
2020-03-25 09:00:00 5.1 5 Sudoeste 10 Sudoeste 0 -- -- 87
2020-03-25 08:00:00 2.5 7 Sur 12 Sudeste 0 -- -- 93
2020-03-25 07:00:00 2 9 Sudeste 17 Sudeste 0 -- -- 91
2020-03-25 06:00:00 3.2 11 Sudeste 15 Sudeste 0 -- -- 91
2020-03-25 05:00:00 3.1 8 Este 10 Este 0 -- -- 86
2020-03-25 04:00:00 4.6 5 Sudeste 9 Sur 0 -- -- 84
2020-03-25 03:00:00 5 6 Este 8 Sudeste 0 -- -- 81
2020-03-25 02:00:00 5.5 9 Sudeste 13 Este 0 -- -- 79
2020-03-25 01:00:00 6 12 Este 15 Este 0 -- -- 76
2020-03-25 00:00:00 7.1 14 Este 15 Este 0 -- -- 73
2020-03-24 23:00:00 8 12 Este 19 Este 0 -- -- 70
2020-03-24 22:00:00 9 14 Este 21 Este 0 -- -- 67
2020-03-24 21:00:00 10.3 12 Nordeste 19 Nordeste 0 -- -- 63
2020-03-24 20:00:00 11.7 10 Nordeste 21 Nordeste 0 -- -- 58
2020-03-24 19:00:00 13.7 15 Nordeste 34 Nordeste 0 -- -- 52
2020-03-24 18:00:00 15.3 21 Nordeste 36 Nordeste 0 -- -- 49
2020-03-24 17:00:00 15.9 18 Este 30 Este 0 -- -- 46
2020-03-24 16:00:00 15.9 16 Este 32 Nordeste 0 -- -- 48
2020-03-24 15:00:00 15.6 13 Este 25 Este 0 -- -- 51
2020-03-24 14:00:00 15 13 Nordeste 22 Nordeste 0 -- -- 54
2020-03-24 13:00:00 13.7 10 Nordeste 22 Este 0 -- -- 58
2020-03-24 12:00:00 12.9 14 Este 25 Nordeste 0 -- -- 59
2020-03-24 11:00:00 11.7 14 Este 27 Este 0 -- -- 67
2020-03-24 10:00:00 9.9 19 Este 26 Este 0 -- -- 76
2020-03-24 09:00:00 6.3 10 Este 15 Este 0 -- -- 91
2020-03-24 08:00:00 4.1 13 Este 22 Este 0 -- -- 95
2020-03-24 07:00:00 3.6 8 Este 13 Este 0 -- -- 94
2020-03-24 06:00:00 4.1 9 Este 18 Este 0 -- -- 94
2020-03-24 05:00:00 4.4 13 Este 19 Este 0 -- -- 93
2020-03-24 04:00:00 5.2 16 Este 19 Este 0 -- -- 92
2020-03-24 03:00:00 4.6 13 Este 21 Este 0 -- -- 92
2020-03-24 02:00:00 5 14 Este 19 Este 0 -- -- 91
2020-03-24 01:00:00 5.6 14 Este 18 Este 0 -- -- 90
2020-03-24 00:00:00 6 11 Este 15 Este 0 -- -- 87
2020-03-23 23:00:00 6.8 12 Este 16 Este 0 -- -- 83
2020-03-23 22:00:00 7.8 11 Este 16 Este 0 -- -- 79
2020-03-23 21:00:00 9 12 Este 21 Este 0 -- -- 77
2020-03-23 20:00:00 10.9 12 Este 32 Nordeste 0 -- -- 68
2020-03-23 19:00:00 14 18 Este 27 Este 0 -- -- 52
2020-03-23 18:00:00 14.7 15 Este 30 Este 0 -- -- 47
2020-03-23 17:00:00 14.9 21 Sudeste 29 Sudeste 0 -- -- 47
2020-03-23 16:00:00 13.2 13 Nordeste 38 Este 0 -- -- 63
2020-03-23 15:00:00 14 19 Este 32 Este 0 -- -- 55
2020-03-23 14:00:00 14.1 21 Este 30 Este 0 -- -- 54
2020-03-23 13:00:00 12.8 15 Este 25 Este 0 -- -- 57
2020-03-23 12:00:00 13 12 Sudeste 21 Este 0 -- -- 60
2020-03-23 11:00:00 11.6 9 Este 18 Este 0 -- -- 75
2020-03-23 10:00:00 8.5 9 Este 18 Este 0 -- -- 86
2020-03-23 09:00:00 6 7 Este 11 Este 0 -- -- 89
2020-03-23 08:00:00 4 0 Calma 8 Este 0 -- -- 94
2020-03-23 07:00:00 3.8 4 Nordeste 6 Nordeste 0 -- -- 95
2020-03-23 06:00:00 3.9 4 Norte 6 Norte 0 -- -- 95
2020-03-23 05:00:00 3.3 4 Nordeste 5 Nordeste 0 -- -- 94
2020-03-23 04:00:00 3.9 5 Este 15 Este 0 -- -- 93
2020-03-23 03:00:00 4.4 14 Este 22 Sudeste 0 -- -- 92
2020-03-23 02:00:00 5.5 10 Este 13 Este 0 -- -- 92
2020-03-23 01:00:00 5.9 3 Este 7 Este 0 -- -- 92
2020-03-23 00:00:00 7.2 4 Nordeste 6 Nordeste 0 -- -- 91
2020-03-22 23:00:00 7.3 2 Norte 8 Oeste 0 -- -- 93
2020-03-22 22:00:00 7.7 3 Noroeste 9 Oeste 0 -- -- 92
2020-03-22 21:00:00 7.9 9 Sudoeste 15 Sudoeste 0 -- -- 93
2020-03-22 20:00:00 8.7 3 Este 6 Norte 0 -- -- 87
2020-03-22 19:00:00 9.4 2 Norte 8 Norte 0 -- -- 84
2020-03-22 18:00:00 9.1 4 Noroeste 30 Norte 0.4 -- -- 87
2020-03-22 17:00:00 9.8 25 Norte 40 Norte 1 -- -- 81
2020-03-22 16:00:00 13.7 5 Sudoeste 9 Oeste 0 -- -- 64
2020-03-22 15:00:00 13.1 2 Oeste 11 Este 0 -- -- 67
2020-03-22 14:00:00 12.2 4 Norte 12 Nordeste 0 -- -- 71
2020-03-22 13:00:00 10.9 3 Este 11 Este 0 -- -- 76
2020-03-22 12:00:00 9.9 4 Este 10 Nordeste 0 -- -- 81
2020-03-22 11:00:00 8.3 6 Nordeste 9 Nordeste 0.2 -- -- 92
2020-03-22 10:00:00 7.7 5 Norte 9 Nordeste 0 -- -- 92
2020-03-22 09:00:00 6.8 2 Noroeste 4 Noroeste 0 -- -- 94
2020-03-22 08:00:00 6.4 0 Calma 3 Sudeste 0 -- -- 95
2020-03-22 07:00:00 6.2 3 Este 5 Este 0 -- -- 95
2020-03-22 06:00:00 6.1 2 Este 8 Este 0 -- -- 96
2020-03-22 05:00:00 6 6 Este 10 Este 0 -- -- 96
2020-03-22 04:00:00 5.9 7 Este 12 Este 0 -- -- 96
2020-03-22 03:00:00 6.2 8 Este 13 Este 0 -- -- 94
2020-03-22 02:00:00 6.6 8 Este 10 Este 0 -- -- 92
2020-03-22 01:00:00 6.9 5 Este 9 Este 0.2 -- -- 90
2020-03-22 00:00:00 7.1 5 Este 9 Este 0 -- -- 90
2020-03-21 23:00:00 7.3 5 Este 11 Sur 0.2 -- -- 91
2020-03-21 22:00:00 7.7 5 Sudeste 11 Sudeste 0.2 -- -- 86
2020-03-21 21:00:00 7.8 5 Este 7 Sudeste 0 -- -- 88
2020-03-21 20:00:00 7.8 7 Sur 13 Sudeste 0.2 -- -- 85
2020-03-21 19:00:00 8.4 9 Sur 18 Sur 0 -- -- 84
2020-03-21 18:00:00 9 13 Sur 25 Sur 0.2 -- -- 83
2020-03-21 17:00:00 10.5 17 Sur 22 Sur 0 -- -- 77
2020-03-21 16:00:00 11.2 14 Sudoeste 22 Sudoeste 0 -- -- 76
2020-03-21 15:00:00 11.3 10 Sudoeste 25 Sur 0 -- -- 74
2020-03-21 14:00:00 12.9 18 Sudoeste 26 Sur 0 -- -- 62
2020-03-21 13:00:00 13.2 22 Sur 30 Sur 0 -- -- 62
2020-03-21 12:00:00 12.6 15 Sur 26 Sur 0 -- -- 66
2020-03-21 11:00:00 11.3 3 Oeste 9 Noroeste 0 -- -- 71
2020-03-21 10:00:00 9.4 3 Sudeste 8 Sudeste 0 -- -- 77
2020-03-21 09:00:00 6.3 3 Norte 8 Norte 0 -- -- 87
2020-03-21 08:00:00 4.4 3 Nordeste 12 Este 0 -- -- 92
2020-03-21 07:00:00 4.9 5 Este 12 Sudeste 0 -- -- 89
2020-03-21 06:00:00 5.1 7 Sudeste 18 Sudeste 0 -- -- 89
2020-03-21 05:00:00 6.3 9 Sudeste 15 Sudeste 0 -- -- 87
2020-03-21 04:00:00 5.6 6 Este 12 Este 0 -- -- 87
2020-03-21 03:00:00 6.7 9 Sudeste 22 Sur 0 -- -- 83
2020-03-21 02:00:00 6.6 10 Sudeste 16 Sudeste 0 -- -- 85
2020-03-21 01:00:00 7 13 Sudeste 19 Sudeste 0 -- -- 83
2020-03-21 00:00:00 7.6 8 Sudeste 19 Sudeste 0 -- -- 82
2020-03-20 23:00:00 7.7 12 Sudeste 19 Sudeste 0 -- -- 83
2020-03-20 22:00:00 8.8 13 Sudeste 33 Sudeste 0 -- -- 78
2020-03-20 21:00:00 10 20 Sudeste 33 Sur 0 -- -- 73
2020-03-20 20:00:00 10.2 26 Sur 33 Sur 0 -- -- 75
2020-03-20 19:00:00 11.6 17 Sur 34 Sur 0 -- -- 72
2020-03-20 18:00:00 13.4 24 Sur 35 Sur 0 -- -- 65
2020-03-20 17:00:00 13.8 29 Sur 40 Sur 0 -- -- 62
2020-03-20 16:00:00 14.7 32 Sur 43 Sur 0 -- -- 61
2020-03-20 15:00:00 15.6 30 Sur 39 Sur 0 -- -- 58
2020-03-20 14:00:00 15.6 24 Sur 36 Sudeste 0 -- -- 60
2020-03-20 13:00:00 13.2 20 Sudeste 35 Sudeste 0 -- -- 66
2020-03-20 12:00:00 12.8 25 Sudeste 40 Sur 0 -- -- 67
2020-03-20 11:00:00 12 25 Sudeste 34 Sur 0 -- -- 69
2020-03-20 10:00:00 10.1 18 Sudeste 25 Sudeste 0 -- -- 80
2020-03-20 09:00:00 8.9 14 Sudeste 26 Sur 0 -- -- 84
2020-03-20 08:00:00 8.2 17 Sur 28 Sur 0 -- -- 85
2020-03-20 07:00:00 7.9 11 Sudeste 18 Sudeste 0 -- -- 87
2020-03-20 06:00:00 7.7 8 Sudeste 16 Sur 0 -- -- 88
2020-03-20 05:00:00 8.6 15 Sur 24 Sur 0 -- -- 85
2020-03-20 04:00:00 8.9 16 Sur 27 Sur 0 -- -- 84
2020-03-20 03:00:00 8.9 19 Sur 27 Sur 0 -- -- 85
2020-03-20 02:00:00 8.5 18 Sur 25 Sur 0 -- -- 86
2020-03-20 01:00:00 8.7 19 Sur 25 Sur 0 -- -- 86
2020-03-20 00:00:00 8.5 18 Sur 21 Sur 0 -- -- 85
2020-03-19 23:00:00 8.9 18 Sur 25 Sur 0 -- -- 83
2020-03-19 22:00:00 10.1 5 Sur 12 Sudeste 0 -- -- 75
2020-03-19 21:00:00 10.9 6 Sudeste 10 Este 0 -- -- 77
2020-03-19 20:00:00 11.6 5 Sur 7 Sudoeste 0 -- -- 68
2020-03-19 19:00:00 12.9 4 Sudoeste 6 Sur 0 -- -- 75
2020-03-19 18:00:00 14 4 Sur 6 Sur 0 -- -- 66
2020-03-19 17:00:00 14.4 0 Calma 8 Sudeste 0 -- -- 65
2020-03-19 16:00:00 14.4 5 Sudeste 10 Sudeste 0 -- -- 64
2020-03-19 15:00:00 14.3 3 Sudoeste 12 Sur 0 -- -- 62
2020-03-19 14:00:00 14.1 4 Sur 10 Sudeste 0 -- -- 69
2020-03-19 13:00:00 13.8 4 Sudeste 10 Sur 0 -- -- 72
2020-03-19 12:00:00 13.4 5 Sur 10 Sudeste 0 -- -- 70
2020-03-19 11:00:00 11.7 5 Sudeste 10 Sudeste 0 -- -- 74
2020-03-19 10:00:00 11.1 6 Este 17 Sudeste 0 -- -- 78
2020-03-19 09:00:00 8.8 4 Sudeste 14 Sudeste 0 -- -- 84
2020-03-19 08:00:00 8.1 14 Sudeste 18 Sudeste 0 -- -- 86
2020-03-19 07:00:00 7.7 7 Este 12 Este 0 -- -- 91
2020-03-19 06:00:00 7.4 4 Este 11 Sudeste 0 -- -- 93
2020-03-19 05:00:00 7.3 8 Este 12 Este 0 -- -- 93
2020-03-19 04:00:00 7.2 6 Este 9 Este 0 -- -- 93
2020-03-19 03:00:00 7.7 9 Sudeste 11 Sudeste 0 -- -- 91
2020-03-19 02:00:00 8.4 8 Sudeste 10 Sudeste 0 -- -- 90
2020-03-19 01:00:00 9.6 9 Este 11 Este 0 -- -- 90
2020-03-19 00:00:00 10.7 2 Este 7 Sudoeste 0 -- -- 80
2020-03-18 23:00:00 11.6 6 Sudoeste 12 Sudoeste 0 -- -- 80
2020-03-18 22:00:00 12.1 6 Sudoeste 11 Sur 0 -- -- 81
2020-03-18 21:00:00 13.3 5 Noroeste 8 Noroeste 0 -- -- 76
2020-03-18 20:00:00 14.6 3 Oeste 5 Noroeste 0 -- -- 74
2020-03-18 19:00:00 15.8 2 Norte 9 Norte 0 -- -- 70
2020-03-18 18:00:00 17.1 7 Norte 13 Nordeste 0 -- -- 65
2020-03-18 17:00:00 17.8 9 Nordeste 17 Este 0 -- -- 57
2020-03-18 16:00:00 17.8 10 Nordeste 15 Nordeste 0 -- -- 54
2020-03-18 15:00:00 17 7 Nordeste 13 Norte 0 -- -- 60
2020-03-18 14:00:00 15.5 7 Nordeste 13 Norte 0 -- -- 67
2020-03-18 13:00:00 13.7 5 Este 15 Este 0 -- -- 72
2020-03-18 12:00:00 11.8 6 Norte 12 Norte 0 -- -- 81
2020-03-18 11:00:00 10.1 0 Calma 8 Nordeste 0 -- -- 86
2020-03-18 10:00:00 8.2 4 Este 14 Nordeste 0 -- -- 92
2020-03-18 09:00:00 6.6 5 Nordeste 15 Este 0 -- -- 95
2020-03-18 08:00:00 6.1 10 Este 14 Sudeste 0 -- -- 96
2020-03-18 07:00:00 5.7 11 Este 24 Este 0 -- -- 96
2020-03-18 06:00:00 5.7 13 Este 15 Este 0 -- -- 95
2020-03-18 05:00:00 5.9 10 Este 18 Este 0 -- -- 96
2020-03-18 04:00:00 6.4 11 Sudeste 18 Sudeste 0 -- -- 94
2020-03-18 03:00:00 7.1 10 Este 18 Este 0 -- -- 94
2020-03-18 02:00:00 7 12 Este 19 Este 0 -- -- 94
2020-03-18 01:00:00 7.7 15 Este 20 Este 0 -- -- 92
2020-03-18 00:00:00 8.6 15 Este 22 Este 0 -- -- 90
2020-03-17 23:00:00 9.4 14 Este 32 Este 0 -- -- 87
2020-03-17 22:00:00 10.2 17 Nordeste 26 Este 0 -- -- 84
2020-03-17 21:00:00 11.3 9 Nordeste 17 Este 0 -- -- 76
2020-03-17 20:00:00 12.2 6 Este 25 Sudeste 0 -- -- 73
2020-03-17 19:00:00 14.2 19 Este 31 Este 0 -- -- 63
2020-03-17 18:00:00 15.6 17 Este 32 Sudeste 0 -- -- 58
2020-03-17 17:00:00 15.9 27 Sudeste 40 Sudeste 0 -- -- 55
2020-03-17 16:00:00 15.6 28 Sudeste 39 Este 0 -- -- 57
2020-03-17 15:00:00 15.1 26 Sudeste 42 Este 0 -- -- 59
2020-03-17 14:00:00 15.2 21 Este 34 Este 0 -- -- 65
2020-03-17 13:00:00 14 19 Este 35 Este 0 -- -- 72
2020-03-17 12:00:00 11.4 20 Este 31 Nordeste 0 -- -- 80
2020-03-17 11:00:00 9.9 15 Nordeste 35 Nordeste 0 -- -- 87
2020-03-17 10:00:00 8.2 22 Nordeste 40 Este 0 -- -- 91
2020-03-17 09:00:00 6.8 17 Nordeste 27 Nordeste 0 -- -- 94
2020-03-17 08:00:00 6.1 12 Nordeste 16 Nordeste 0 -- -- 96
2020-03-17 07:00:00 5.2 4 Norte 9 Norte 0 -- -- 97
2020-03-17 06:00:00 5 6 Norte 11 Norte 0.2 -- -- 97
2020-03-17 05:00:00 4.9 4 Norte 8 Noroeste 0.2 -- -- 96
2020-03-17 04:00:00 4.8 3 Noroeste 4 Noroeste 0.2 -- -- 96
2020-03-17 03:00:00 4.9 2 Nordeste 12 Este 0.8 -- -- 95
2020-03-17 02:00:00 4.9 9 Nordeste 22 Nordeste 1.4 -- -- 93
2020-03-17 01:00:00 5.1 16 Este 36 Este 1.2 -- -- 91
2020-03-17 00:00:00 5.7 21 Nordeste 46 Norte 0.2 -- -- 86
2020-03-16 23:00:00 5.8 25 Nordeste 47 Nordeste 0 -- -- 87
2020-03-16 22:00:00 5.8 24 Nordeste 54 Nordeste 0.2 -- -- 88
2020-03-16 21:00:00 5.9 29 Nordeste 53 Nordeste 0.2 -- -- 87
2020-03-16 20:00:00 5.8 30 Nordeste 49 Nordeste 0 -- -- 88
2020-03-16 19:00:00 5.4 29 Nordeste 45 Nordeste 1.4 -- -- 89
2020-03-16 18:00:00 5.7 32 Nordeste 50 Nordeste 0.4 -- -- 87
2020-03-16 17:00:00 5.1 33 Nordeste 59 Nordeste 1.2 -- -- 88
2020-03-16 16:00:00 4.8 35 Nordeste 69 Nordeste 0.6 -- -- 87
2020-03-16 15:00:00 5.1 30 Nordeste 51 Nordeste 0.4 -- -- 88
2020-03-16 14:00:00 4.3 31 Nordeste 48 Nordeste 1 -- -- 90
2020-03-16 13:00:00 2.9 17 Nordeste 34 Nordeste 1.8 -- -- 95
2020-03-16 12:00:00 2.1 18 Nordeste 28 Norte 2.2 -- -- 96
2020-03-16 11:00:00 1.4 13 Norte 23 Nordeste 1.6 -- -- 95
2020-03-16 10:00:00 1.6 13 Norte 28 Nordeste 1 -- -- 96
2020-03-16 09:00:00 1.6 19 Norte 45 Nordeste 1.4 -- -- 94
2020-03-16 08:00:00 1.7 18 Norte 38 Norte 1 -- -- 96
2020-03-16 07:00:00 1.7 16 Norte 30 Norte 0.8 -- -- 95
2020-03-16 06:00:00 1.6 12 Noroeste 29 Noroeste 0.2 -- -- 95
2020-03-16 05:00:00 2.3 10 Noroeste 21 Noroeste 0 -- -- 96
2020-03-16 04:00:00 2.3 8 Oeste 19 Oeste 0 -- -- 96
2020-03-16 03:00:00 1.7 10 Oeste 27 Oeste 0 -- -- 95
2020-03-16 02:00:00 2.1 14 Oeste 23 Oeste 0.2 -- -- 93
2020-03-16 01:00:00 2.7 12 Oeste 26 Noroeste 0.4 -- -- 91
2020-03-16 00:00:00 3.3 19 Noroeste 42 Noroeste 0 -- -- 85
2020-03-15 23:00:00 4.8 26 Noroeste 44 Noroeste 0 -- -- 75
2020-03-15 22:00:00 8.7 19 Oeste 39 Oeste 0 -- -- 71
2020-03-15 21:00:00 9.5 12 Sudoeste 15 Sudoeste 0 -- -- 70
2020-03-15 20:00:00 10.7 10 Oeste 30 Oeste 0 -- -- 63
2020-03-15 19:00:00 12.8 21 Oeste 38 Oeste 0 -- -- 62
2020-03-15 18:00:00 15.9 22 Oeste 40 Oeste 0 -- -- 55
2020-03-15 17:00:00 16.6 23 Oeste 57 Sudoeste 0 -- -- 53
2020-03-15 16:00:00 19.7 43 Sudoeste 58 Sudoeste 0 -- -- 36
2020-03-15 15:00:00 19.9 35 Sudoeste 55 Oeste 0 -- -- 44
2020-03-15 14:00:00 19.3 30 Oeste 46 Sudoeste 0 -- -- 44
2020-03-15 13:00:00 18.6 23 Oeste 48 Sudoeste 0 -- -- 46
2020-03-15 12:00:00 16.9 13 Sudoeste 22 Sudoeste 0 -- -- 40
2020-03-15 11:00:00 13.7 9 Sudoeste 14 Sudoeste 0 -- -- 49
2020-03-15 10:00:00 8.5 3 Sur 9 Sudoeste 0 -- -- 60
2020-03-15 09:00:00 3.7 4 Sur 10 Sudeste 0 -- -- 75
2020-03-15 08:00:00 -0.2 8 Sudeste 15 Sudeste 0 -- -- 80
2020-03-15 07:00:00 -0.4 8 Este 14 Este 0 -- -- 81
2020-03-15 06:00:00 -0.4 7 Este 13 Sudeste 0 -- -- 80
2020-03-15 05:00:00 1.4 6 Sudeste 10 Sudeste 0 -- -- 73
2020-03-15 04:00:00 3.3 9 Sudeste 12 Sudeste 0 -- -- 69
2020-03-15 03:00:00 3.4 12 Sudeste 13 Sudeste 0 -- -- 68
2020-03-15 02:00:00 5 7 Sur 14 Sur 0 -- -- 64
2020-03-15 01:00:00 5.8 10 Sur 13 Sur 0 -- -- 59
2020-03-15 00:00:00 6.3 6 Sudeste 12 Este 0 -- -- 59
2020-03-14 23:00:00 10.7 4 Este 5 Este 0 -- -- 43
2020-03-14 22:00:00 11.6 4 Este 7 Nordeste 0 -- -- 41
2020-03-14 21:00:00 12 5 Nordeste 9 Norte 0 -- -- 43
2020-03-14 20:00:00 13.9 6 Norte 13 Norte 0 -- -- 39
2020-03-14 19:00:00 16.6 8 Norte 15 Noroeste 0 -- -- 33
2020-03-14 18:00:00 18.5 5 Norte 12 Norte 0 -- -- 25
2020-03-14 17:00:00 18.6 6 Norte 12 Nordeste 0 -- -- 29
2020-03-14 16:00:00 17.9 6 Norte 14 Norte 0 -- -- 35
2020-03-14 15:00:00 16.8 7 Norte 20 Nordeste 0 -- -- 43
2020-03-14 14:00:00 15.2 6 Norte 12 Nordeste 0 -- -- 50
2020-03-14 13:00:00 12.5 3 Noroeste 8 Nordeste 0 -- -- 64
2020-03-14 12:00:00 9.3 3 Este 9 Sudeste 0 -- -- 72
2020-03-14 11:00:00 5.8 5 Este 10 Este 0 -- -- 83
2020-03-14 10:00:00 2.2 0 Calma 5 Este 0 -- -- 96
2020-03-14 09:00:00 0 2 Sudeste 6 Sudeste 0 -- -- 96
2020-03-14 08:00:00 -0.9 0 Calma 3 Sur 0 -- -- 95
2020-03-14 07:00:00 -0.3 0 Calma 5 Noroeste 0 -- -- 95
2020-03-14 06:00:00 1.2 0 Calma 6 Norte 0 -- -- 93
2020-03-14 05:00:00 2 2 Norte 6 Norte 0 -- -- 93
2020-03-14 04:00:00 2.9 4 Noroeste 6 Noroeste 0 -- -- 90
2020-03-14 03:00:00 3.7 0 Calma 6 Sudeste 0 -- -- 90
2020-03-14 02:00:00 4.3 3 Este 5 Este 0 -- -- 88
2020-03-14 01:00:00 5.7 4 Nordeste 12 Este 0 -- -- 84
2020-03-14 00:00:00 6.4 6 Este 15 Nordeste 0 -- -- 82
2020-03-13 23:00:00 6.7 7 Nordeste 13 Noroeste 0 -- -- 84
2020-03-13 22:00:00 7.7 6 Norte 14 Norte 0 -- -- 81
2020-03-13 21:00:00 9.5 8 Norte 15 Norte 0 -- -- 76
2020-03-13 20:00:00 11.3 9 Norte 21 Norte 0 -- -- 71
2020-03-13 19:00:00 12.9 15 Norte 34 Norte 0 -- -- 67
2020-03-13 18:00:00 15.3 18 Norte 30 Norte 0 -- -- 61
2020-03-13 17:00:00 16.3 14 Norte 25 Noroeste 0 -- -- 59
2020-03-13 16:00:00 17.4 13 Norte 22 Noroeste 0 -- -- 57
2020-03-13 15:00:00 17.4 9 Nordeste 19 Norte 0 -- -- 57
2020-03-13 14:00:00 15.8 10 Norte 22 Norte 0 -- -- 61
2020-03-13 13:00:00 14.9 9 Norte 19 Norte 0 -- -- 62
2020-03-13 12:00:00 13.7 7 Nordeste 18 Nordeste 0 -- -- 66
2020-03-13 11:00:00 11.2 10 Nordeste 17 Nordeste 0 -- -- 74
2020-03-13 10:00:00 9.1 4 Sudeste 17 Nordeste 0 -- -- 83
2020-03-13 09:00:00 7.6 11 Nordeste 17 Nordeste 0 -- -- 88
2020-03-13 08:00:00 6.7 10 Nordeste 14 Nordeste 0 -- -- 90
2020-03-13 07:00:00 7 6 Nordeste 16 Nordeste 0 -- -- 87
2020-03-13 06:00:00 7.3 8 Nordeste 11 Nordeste 0 -- -- 89
2020-03-13 05:00:00 7 4 Norte 12 Nordeste 0 -- -- 90
2020-03-13 04:00:00 8.4 9 Nordeste 17 Nordeste 0 -- -- 85
2020-03-13 03:00:00 8.9 9 Nordeste 16 Nordeste 0 -- -- 84
2020-03-13 02:00:00 9.5 10 Nordeste 24 Nordeste 0 -- -- 82
2020-03-13 01:00:00 10.1 12 Nordeste 20 Nordeste 0 -- -- 81
2020-03-13 00:00:00 10.8 10 Nordeste 19 Nordeste 0 -- -- 80
2020-03-12 23:00:00 11.8 14 Nordeste 22 Nordeste 0 -- -- 76
2020-03-12 22:00:00 13.1 10 Nordeste 17 Este 0 -- -- 73
2020-03-12 21:00:00 15 10 Norte 12 Norte 0 -- -- 71
2020-03-12 20:00:00 17 7 Noroeste 13 Norte 0 -- -- 62
2020-03-12 19:00:00 18.3 6 Noroeste 16 Noroeste 0 -- -- 54
2020-03-12 18:00:00 19.8 10 Noroeste 21 Noroeste 0 -- -- 48
2020-03-12 17:00:00 20.9 15 Noroeste 23 Norte 0 -- -- 45
2020-03-12 16:00:00 22.8 9 Noroeste 20 Noroeste 0 -- -- 38
2020-03-12 15:00:00 22.9 13 Noroeste 23 Noroeste 0 -- -- 36
2020-03-12 14:00:00 21.7 5 Oeste 9 Oeste 0 -- -- 41
2020-03-12 13:00:00 20.1 4 Norte 8 Noroeste 0 -- -- 50
2020-03-12 12:00:00 16.2 4 Oeste 6 Oeste 0 -- -- 58
2020-03-12 11:00:00 13.7 3 Oeste 6 Oeste 0 -- -- 65
2020-03-12 10:00:00 10.5 4 Sudeste 9 Sudeste 0 -- -- 79
2020-03-12 09:00:00 9 7 Sudeste 18 Sudeste 0 -- -- 79
2020-03-12 08:00:00 7.7 14 Sudeste 18 Sudeste 0 -- -- 84
2020-03-12 07:00:00 7.4 14 Este 19 Este 0 -- -- 86
2020-03-12 06:00:00 7.7 8 Este 16 Este 0 -- -- 85
2020-03-12 05:00:00 8.3 11 Sudeste 14 Sudeste 0 -- -- 83
2020-03-12 04:00:00 8.9 10 Este 13 Este 0 -- -- 82
2020-03-12 03:00:00 10.5 10 Sudeste 12 Sudeste 0 -- -- 76
2020-03-12 02:00:00 11.9 10 Sudeste 19 Sur 0 -- -- 71
2020-03-12 01:00:00 13.5 18 Sur 22 Sur 0 -- -- 65
2020-03-12 00:00:00 14.3 15 Sur 18 Sur 0 -- -- 61
2020-03-11 23:00:00 14.7 14 Sur 17 Sur 0 -- -- 61
2020-03-11 22:00:00 15.9 11 Sur 12 Sur 0 -- -- 55
2020-03-11 21:00:00 16.8 10 Sur 11 Sur 0 -- -- 55
2020-03-11 20:00:00 18.2 9 Sudeste 10 Sudeste 0 -- -- 52
2020-03-11 19:00:00 21 2 Sur 3 Sur 0 -- -- 44
2020-03-11 18:00:00 22.5 2 Oeste 12 Noroeste 0 -- -- 42
2020-03-11 17:00:00 24 8 Oeste 17 Oeste 0 -- -- 37
2020-03-11 16:00:00 23.3 8 Oeste 20 Noroeste 0 -- -- 36
2020-03-11 15:00:00 23.6 8 Oeste 17 Sudoeste 0 -- -- 35
2020-03-11 14:00:00 22.5 9 Oeste 15 Sudoeste 0 -- -- 37
2020-03-11 13:00:00 21.1 3 Oeste 11 Este 0 -- -- 46
2020-03-11 12:00:00 18.7 3 Sudeste 10 Sudeste 0 -- -- 55
2020-03-11 11:00:00 15.1 8 Sudeste 13 Sudeste 0 -- -- 66
2020-03-11 10:00:00 10.9 9 Sudeste 12 Sudeste 0 -- -- 78
2020-03-11 09:00:00 7.9 8 Sudeste 13 Sudeste 0 -- -- 85
2020-03-11 08:00:00 6 11 Sudeste 15 Sudeste 0 -- -- 89
2020-03-11 07:00:00 6.5 9 Sudeste 15 Sudeste 0 -- -- 88
2020-03-11 06:00:00 6.6 9 Sudeste 12 Sudeste 0 -- -- 88
2020-03-11 05:00:00 6.9 6 Este 9 Este 0 -- -- 87
2020-03-11 04:00:00 8 6 Sudeste 17 Sur 0 -- -- 82
2020-03-11 03:00:00 8.4 14 Sur 22 Sur 0 -- -- 81
2020-03-11 02:00:00 8.4 15 Sur 22 Sudoeste 0 -- -- 82
2020-03-11 01:00:00 9.7 20 Sudoeste 23 Sur 0 -- -- 78
2020-03-11 00:00:00 10.1 17 Sudoeste 20 Sudoeste 0 -- -- 75
2020-03-10 23:00:00 11.5 14 Sudoeste 15 Sudoeste 0 -- -- 67
2020-03-10 22:00:00 13.4 6 Oeste 8 Oeste 0 -- -- 63
2020-03-10 21:00:00 14.8 5 Noroeste 12 Noroeste 0 -- -- 62
2020-03-10 20:00:00 16.5 7 Oeste 11 Oeste 0 -- -- 59
2020-03-10 19:00:00 19.8 9 Oeste 23 Oeste 0 -- -- 51
2020-03-10 18:00:00 21.7 14 Oeste 26 Oeste 0 -- -- 42
2020-03-10 17:00:00 22 13 Oeste 26 Oeste 0 -- -- 42
2020-03-10 16:00:00 21 15 Oeste 24 Oeste 0 -- -- 43
2020-03-10 15:00:00 20.3 15 Sudoeste 21 Sudoeste 0 -- -- 43
2020-03-10 14:00:00 18.8 12 Sudoeste 21 Sudoeste 0 -- -- 42
2020-03-10 13:00:00 17.2 12 Sudoeste 17 Sudoeste 0 -- -- 44
2020-03-10 12:00:00 15.1 7 Sudoeste 13 Oeste 0 -- -- 50
2020-03-10 11:00:00 12 6 Este 10 Sudeste 0 -- -- 63
2020-03-10 10:00:00 7.6 8 Sudeste 14 Sur 0 -- -- 73
2020-03-10 09:00:00 6.1 12 Sur 17 Sur 0 -- -- 74
2020-03-10 08:00:00 3.5 13 Sur 17 Sur 0 -- -- 81
2020-03-10 07:00:00 3.5 13 Sur 21 Sur 0 -- -- 80
2020-03-10 06:00:00 4 12 Sur 14 Sur 0 -- -- 79
2020-03-10 05:00:00 3.7 8 Sur 9 Sur 0 -- -- 80
2020-03-10 04:00:00 4.7 8 Sudoeste 19 Sudoeste 0 -- -- 77
2020-03-10 03:00:00 4.8 16 Sudoeste 26 Sudoeste 0 -- -- 76
2020-03-10 02:00:00 4.2 19 Sur 23 Sur 0 -- -- 75
2020-03-10 01:00:00 5.2 15 Sudoeste 19 Sudoeste 0 -- -- 73
2020-03-10 00:00:00 5.4 13 Sur 16 Sur 0 -- -- 68
2020-03-09 23:00:00 6.7 13 Sur 17 Sur 0 -- -- 64
2020-03-09 22:00:00 7.5 6 Sudoeste 12 Sur 0 -- -- 62
2020-03-09 21:00:00 8.6 5 Oeste 9 Sudoeste 0 -- -- 60
2020-03-09 20:00:00 9.6 6 Oeste 10 Oeste 0 -- -- 59
2020-03-09 19:00:00 12.6 8 Oeste 16 Noroeste 0 -- -- 50
2020-03-09 18:00:00 13.7 11 Noroeste 24 Noroeste 0 -- -- 43
2020-03-09 17:00:00 13.9 13 Noroeste 27 Noroeste 0 -- -- 42
2020-03-09 16:00:00 13.7 12 Noroeste 25 Noroeste 0 -- -- 42
2020-03-09 15:00:00 13 11 Noroeste 23 Noroeste 0 -- -- 48
2020-03-09 14:00:00 12 12 Noroeste 21 Noroeste 0 -- -- 52
2020-03-09 13:00:00 10.8 9 Oeste 19 Oeste 0 -- -- 59
2020-03-09 12:00:00 9.1 10 Noroeste 18 Noroeste 0 -- -- 67
2020-03-09 11:00:00 7.3 7 Oeste 19 Oeste 0 -- -- 80
2020-03-09 10:00:00 5.1 12 Oeste 21 Oeste 0 -- -- 92
2020-03-09 09:00:00 3.1 12 Sudoeste 16 Sudoeste 0 -- -- 97
2020-03-09 08:00:00 1 9 Sudoeste 14 Sudoeste 0 -- -- 96
2020-03-09 07:00:00 1.4 13 Sudoeste 19 Sudoeste 0 -- -- 96
2020-03-09 06:00:00 2 15 Sudoeste 19 Sudoeste 0 -- -- 95
2020-03-09 05:00:00 2.7 12 Sudoeste 17 Sudoeste 0 -- -- 96
2020-03-09 04:00:00 3.9 12 Oeste 20 Oeste 0 -- -- 95
2020-03-09 03:00:00 4.5 15 Oeste 21 Oeste 0 -- -- 96
2020-03-09 02:00:00 5.1 14 Oeste 20 Oeste 0 -- -- 96
2020-03-09 01:00:00 5.5 12 Oeste 24 Sudoeste 0 -- -- 96
2020-03-09 00:00:00 5.6 16 Sudoeste 20 Sudoeste 0 -- -- 95
2020-03-08 23:00:00 6.1 15 Sudoeste 24 Sudoeste 0 -- -- 93
2020-03-08 22:00:00 6.7 17 Sudoeste 24 Sudoeste 0 -- -- 90
2020-03-08 21:00:00 7.8 18 Sudoeste 22 Sudoeste 0 -- -- 88
2020-03-08 20:00:00 9.2 14 Sudoeste 24 Oeste 0 -- -- 81
2020-03-08 19:00:00 11.5 14 Oeste 33 Sudoeste 0 -- -- 73
2020-03-08 18:00:00 12.5 22 Oeste 33 Sudoeste 0 -- -- 67
2020-03-08 17:00:00 13.1 20 Oeste 31 Oeste 0 -- -- 67
2020-03-08 16:00:00 12.3 17 Oeste 27 Oeste 0 -- -- 65
2020-03-08 15:00:00 11.1 17 Oeste 26 Oeste 0 -- -- 66
2020-03-08 14:00:00 10.9 13 Oeste 25 Oeste 0 -- -- 65
2020-03-08 13:00:00 10.4 14 Oeste 30 Sudoeste 0 -- -- 68
2020-03-08 12:00:00 8.6 15 Sudoeste 22 Oeste 0 -- -- 80
2020-03-08 11:00:00 5.6 15 Sudoeste 20 Sudoeste 0 -- -- 92
2020-03-08 10:00:00 5.2 14 Sudoeste 21 Sudoeste 0 -- -- 88
2020-03-08 09:00:00 3 12 Sudoeste 19 Sur 0 -- -- 91
2020-03-08 08:00:00 0.6 11 Sudoeste 19 Sudoeste 0 -- -- 91
2020-03-08 07:00:00 0 13 Sur 17 Sur 0 -- -- 91
2020-03-08 06:00:00 0.9 14 Sur 24 Sur 0 -- -- 88
2020-03-08 05:00:00 2 20 Sur 27 Sur 0 -- -- 86
2020-03-08 04:00:00 2.1 23 Sur 27 Sur 0 -- -- 87
2020-03-08 03:00:00 2.8 22 Sur 28 Sur 0 -- -- 84
2020-03-08 02:00:00 3.3 22 Sur 26 Sur 0 -- -- 84
2020-03-08 01:00:00 3.5 20 Sur 28 Sur 0 -- -- 83
2020-03-08 00:00:00 4.3 19 Sur 22 Sur 0 -- -- 80
2020-03-07 23:00:00 4.9 13 Sur 16 Sur 0 -- -- 78
2020-03-07 22:00:00 6 14 Sur 15 Sur 0 -- -- 74
2020-03-07 21:00:00 6.5 10 Sur 12 Sur 0 -- -- 73
2020-03-07 20:00:00 8.4 7 Sudoeste 8 Sudoeste 0 -- -- 64
2020-03-07 19:00:00 12 4 Sudoeste 11 Noroeste 0 -- -- 58
2020-03-07 18:00:00 13.1 5 Noroeste 14 Oeste 0 -- -- 52
2020-03-07 17:00:00 13.1 6 Noroeste 14 Norte 0 -- -- 53
2020-03-07 16:00:00 12.9 8 Noroeste 15 Noroeste 0 -- -- 54
2020-03-07 15:00:00 11.9 7 Noroeste 19 Oeste 0 -- -- 58
2020-03-07 14:00:00 11.2 7 Sudoeste 13 Sudoeste 0 -- -- 58
2020-03-07 13:00:00 10.3 4 Sudoeste 10 Oeste 0 -- -- 63
2020-03-07 12:00:00 8.7 4 Noroeste 11 Oeste 0 -- -- 69
2020-03-07 11:00:00 6.5 5 Sudoeste 9 Sudoeste 0 -- -- 77
2020-03-07 10:00:00 3.8 6 Sudoeste 16 Sudoeste 0 -- -- 85
2020-03-07 09:00:00 1.3 12 Sudoeste 18 Sudoeste 0 -- -- 91
2020-03-07 08:00:00 -0.6 14 Sudoeste 18 Sudoeste 0 -- -- 93
2020-03-07 07:00:00 -0.9 10 Sudoeste 19 Sudoeste 0 -- -- 90
2020-03-07 06:00:00 -0.8 10 Sudoeste 15 Sudoeste 0 -- -- 90
2020-03-07 05:00:00 -0.4 8 Sudoeste 13 Oeste 0 -- -- 88
2020-03-07 04:00:00 0.1 9 Oeste 13 Oeste 0 -- -- 86
2020-03-07 03:00:00 0.9 9 Oeste 15 Oeste 0 -- -- 80
2020-03-07 02:00:00 1.7 7 Noroeste 18 Noroeste 0 -- -- 75
2020-03-07 01:00:00 2.5 9 Noroeste 17 Noroeste 0 -- -- 72
2020-03-07 00:00:00 2.7 9 Oeste 17 Oeste 0 -- -- 73
2020-03-06 23:00:00 2.5 8 Oeste 13 Oeste 0 -- -- 74
2020-03-06 22:00:00 4.1 6 Oeste 17 Noroeste 0 -- -- 68
2020-03-06 21:00:00 5.8 14 Noroeste 30 Norte 0 -- -- 59
2020-03-06 20:00:00 6.4 18 Noroeste 35 Noroeste 0 -- -- 51
2020-03-06 19:00:00 8 22 Noroeste 44 Noroeste 0 -- -- 46
2020-03-06 18:00:00 9.8 27 Noroeste 51 Noroeste 0 -- -- 40
2020-03-06 17:00:00 10.5 28 Noroeste 54 Noroeste 0 -- -- 43
2020-03-06 16:00:00 10.4 29 Noroeste 55 Noroeste 0 -- -- 40
2020-03-06 15:00:00 9.4 30 Noroeste 52 Noroeste 0 -- -- 47
2020-03-06 14:00:00 9.4 36 Noroeste 59 Noroeste 0 -- -- 44
2020-03-06 13:00:00 8.7 36 Noroeste 66 Noroeste 0 -- -- 49
2020-03-06 12:00:00 7.2 33 Noroeste 53 Noroeste 0 -- -- 62
2020-03-06 11:00:00 6.8 30 Oeste 62 Oeste 0 -- -- 68
2020-03-06 10:00:00 5.7 33 Oeste 55 Oeste 0 -- -- 73
2020-03-06 09:00:00 4.5 26 Oeste 43 Oeste 0 -- -- 79
2020-03-06 08:00:00 3.6 28 Oeste 44 Oeste 0 -- -- 84
2020-03-06 07:00:00 3.6 23 Oeste 44 Oeste 0 -- -- 86
2020-03-06 06:00:00 4.2 27 Oeste 42 Oeste 0 -- -- 87
2020-03-06 05:00:00 4.5 22 Oeste 40 Oeste 0 -- -- 89
2020-03-06 04:00:00 4.7 24 Oeste 38 Oeste 0 -- -- 89
2020-03-06 03:00:00 4.3 26 Oeste 45 Sudoeste 0 -- -- 89
2020-03-06 02:00:00 4.4 27 Oeste 39 Sudoeste 0 -- -- 88
2020-03-06 01:00:00 3.8 17 Oeste 30 Sudoeste 0 -- -- 90
2020-03-06 00:00:00 4 14 Oeste 27 Oeste 0 -- -- 83
2020-03-05 23:00:00 5.3 16 Oeste 30 Oeste 0 -- -- 79
2020-03-05 22:00:00 6.9 22 Oeste 38 Oeste 0 -- -- 73
2020-03-05 21:00:00 7.6 16 Oeste 45 Oeste 0 -- -- 75
2020-03-05 20:00:00 8.7 20 Oeste 40 Oeste 0 -- -- 71
2020-03-05 19:00:00 10.2 25 Oeste 43 Oeste 0 -- -- 68
2020-03-05 18:00:00 11.2 30 Oeste 53 Oeste 0 -- -- 67
2020-03-05 17:00:00 11.5 24 Oeste 63 Oeste 0 -- -- 67
2020-03-05 16:00:00 11.6 29 Oeste 53 Oeste 0 -- -- 60
2020-03-05 15:00:00 11.9 33 Oeste 53 Oeste 0 -- -- 58
2020-03-05 14:00:00 11.4 32 Oeste 59 Oeste 0 -- -- 59
2020-03-05 13:00:00 10.9 36 Oeste 58 Oeste 0 -- -- 65
2020-03-05 12:00:00 9.7 28 Oeste 54 Oeste 0 -- -- 71
2020-03-05 11:00:00 8.5 31 Oeste 66 Oeste 0 -- -- 80
2020-03-05 10:00:00 7.9 32 Oeste 67 Noroeste 0.4 -- -- 91
2020-03-05 09:00:00 10.7 49 Sudoeste 62 Sudoeste 0 -- -- 85
2020-03-05 08:00:00 10.2 41 Sudoeste 56 Sudoeste 0 -- -- 86
2020-03-05 07:00:00 10 24 Sudoeste 44 Sudoeste 0 -- -- 86
2020-03-05 06:00:00 10 30 Sudoeste 42 Sudoeste 0 -- -- 88
2020-03-05 05:00:00 10.4 27 Sudoeste 39 Sudoeste 0 -- -- 88
2020-03-05 04:00:00 10.5 28 Sudoeste 40 Sudoeste 0 -- -- 89
2020-03-05 03:00:00 10.3 27 Sudoeste 35 Sudoeste 0 -- -- 88
2020-03-05 02:00:00 10.7 23 Sudoeste 36 Sudoeste 0 -- -- 86
2020-03-05 01:00:00 10.9 19 Sudoeste 27 Sudoeste 0 -- -- 85
2020-03-05 00:00:00 10.9 22 Sudoeste 32 Sudoeste 0 -- -- 85
2020-03-04 23:00:00 11.1 21 Sudoeste 30 Sudoeste 0 -- -- 83
2020-03-04 22:00:00 11.2 22 Sudoeste 29 Sudoeste 0 -- -- 82
2020-03-04 21:00:00 11 17 Sudoeste 25 Oeste 0 -- -- 82
2020-03-04 20:00:00 12.2 13 Oeste 22 Sudoeste 0 -- -- 77
2020-03-04 19:00:00 12.7 13 Oeste 34 Oeste 0 -- -- 74
2020-03-04 18:00:00 13.9 22 Oeste 37 Sudoeste 0 -- -- 69
2020-03-04 17:00:00 14 22 Oeste 40 Sudoeste 0 -- -- 68
2020-03-04 16:00:00 13.9 19 Oeste 38 Oeste 0 -- -- 69
2020-03-04 15:00:00 13.5 19 Oeste 37 Oeste 0 -- -- 69
2020-03-04 14:00:00 14.2 21 Oeste 33 Oeste 0 -- -- 64
2020-03-04 13:00:00 12.1 19 Oeste 40 Oeste 0 -- -- 79
2020-03-04 12:00:00 12.1 22 Oeste 42 Oeste 0 -- -- 77
2020-03-04 11:00:00 11.6 23 Oeste 37 Oeste 0 -- -- 83
2020-03-04 10:00:00 10.3 19 Oeste 35 Sudoeste 0 -- -- 92
2020-03-04 09:00:00 9.6 17 Oeste 31 Oeste 0 -- -- 94
2020-03-04 08:00:00 9.6 22 Oeste 38 Oeste 0 -- -- 93
2020-03-04 07:00:00 9.8 19 Oeste 31 Oeste 0 -- -- 93
2020-03-04 06:00:00 10.4 18 Oeste 39 Oeste 0 -- -- 93
2020-03-04 05:00:00 10.6 23 Oeste 36 Sudoeste 0 -- -- 94
2020-03-04 04:00:00 10.7 21 Oeste 33 Sudoeste 0 -- -- 95
2020-03-04 03:00:00 10.9 21 Sudoeste 36 Sudoeste 0 -- -- 95
2020-03-04 02:00:00 11.1 23 Oeste 34 Oeste 0 -- -- 94
2020-03-04 01:00:00 11.3 22 Sudoeste 31 Sudoeste 0 -- -- 92
2020-03-04 00:00:00 10.8 18 Oeste 31 Sudoeste 0 -- -- 92